sensor_id;sensor_type;location;lat;lon;timestamp;temperature;humidity
17495;DHT22;8864;51.970;4.614;2022-10-16T00:01:59;19.30;73.50
17495;DHT22;8864;51.970;4.614;2022-10-16T00:04:35;19.30;73.50
17495;DHT22;8864;51.970;4.614;2022-10-16T00:07:06;19.30;73.50
17495;DHT22;8864;51.970;4.614;2022-10-16T00:09:42;19.30;73.40
17495;DHT22;8864;51.970;4.614;2022-10-16T00:12:09;19.30;73.40
17495;DHT22;8864;51.970;4.614;2022-10-16T00:14:35;19.30;73.40
17495;DHT22;8864;51.970;4.614;2022-10-16T00:17:02;19.20;73.30
17495;DHT22;8864;51.970;4.614;2022-10-16T00:19:43;19.30;73.30
17495;DHT22;8864;51.970;4.614;2022-10-16T00:22:17;19.30;73.30
17495;DHT22;8864;51.970;4.614;2022-10-16T00:24:44;19.30;73.20
17495;DHT22;8864;51.970;4.614;2022-10-16T00:27:11;19.30;73.30
17495;DHT22;8864;51.970;4.614;2022-10-16T00:29:38;19.30;73.30
17495;DHT22;8864;51.970;4.614;2022-10-16T00:32:05;19.30;73.20
17495;DHT22;8864;51.970;4.614;2022-10-16T00:34:32;19.30;73.20
17495;DHT22;8864;51.970;4.614;2022-10-16T00:37:00;19.30;73.20
17495;DHT22;8864;51.970;4.614;2022-10-16T00:39:31;19.30;73.20
17495;DHT22;8864;51.970;4.614;2022-10-16T00:42:02;19.30;73.20
17495;DHT22;8864;51.970;4.614;2022-10-16T00:44:47;19.30;73.20
17495;DHT22;8864;51.970;4.614;2022-10-16T00:47:23;19.30;73.20
17495;DHT22;8864;51.970;4.614;2022-10-16T00:52:34;19.30;73.10
17495;DHT22;8864;51.970;4.614;2022-10-16T00:55:05;19.30;73.20
17495;DHT22;8864;51.970;4.614;2022-10-16T00:57:32;19.30;73.20
17495;DHT22;8864;51.970;4.614;2022-10-16T01:00:03;19.30;73.20
17495;DHT22;8864;51.970;4.614;2022-10-16T01:02:33;19.30;73.20
17495;DHT22;8864;51.970;4.614;2022-10-16T01:05:10;19.30;73.30
17495;DHT22;8864;51.970;4.614;2022-10-16T01:07:49;19.30;73.30
17495;DHT22;8864;51.970;4.614;2022-10-16T01:10:27;19.30;73.30
17495;DHT22;8864;51.970;4.614;2022-10-16T01:13:23;19.20;73.30
17495;DHT22;8864;51.970;4.614;2022-10-16T01:16:07;19.30;73.50
17495;DHT22;8864;51.970;4.614;2022-10-16T01:18:39;19.30;73.40
17495;DHT22;8864;51.970;4.614;2022-10-16T01:21:18;19.20;73.30
17495;DHT22;8864;51.970;4.614;2022-10-16T01:23:59;19.30;73.50
17495;DHT22;8864;51.970;4.614;2022-10-16T01:27:11;19.20;73.40
17495;DHT22;8864;51.970;4.614;2022-10-16T01:30:02;19.30;73.50
17495;DHT22;8864;51.970;4.614;2022-10-16T01:32:39;19.30;73.60
17495;DHT22;8864;51.970;4.614;2022-10-16T01:35:11;19.30;73.60
17495;DHT22;8864;51.970;4.614;2022-10-16T01:37:51;19.20;73.60
17495;DHT22;8864;51.970;4.614;2022-10-16T01:40:20;19.20;73.70
17495;DHT22;8864;51.970;4.614;2022-10-16T01:42:59;19.20;73.60
17495;DHT22;8864;51.970;4.614;2022-10-16T01:45:52;19.30;73.80
17495;DHT22;8864;51.970;4.614;2022-10-16T01:48:20;19.30;73.80
17495;DHT22;8864;51.970;4.614;2022-10-16T01:50:57;19.30;73.90
17495;DHT22;8864;51.970;4.614;2022-10-16T01:53:45;19.30;73.90
17495;DHT22;8864;51.970;4.614;2022-10-16T01:56:22;19.30;74.00
17495;DHT22;8864;51.970;4.614;2022-10-16T01:58:54;19.30;74.00
17495;DHT22;8864;51.970;4.614;2022-10-16T02:01:36;19.20;74.00
17495;DHT22;8864;51.970;4.614;2022-10-16T02:04:17;19.20;74.10
17495;DHT22;8864;51.970;4.614;2022-10-16T02:06:45;19.20;74.10
17495;DHT22;8864;51.970;4.614;2022-10-16T02:09:15;19.30;74.90
17495;DHT22;8864;51.970;4.614;2022-10-16T02:11:45;19.20;74.10
17495;DHT22;8864;51.970;4.614;2022-10-16T02:14:18;19.30;74.20
17495;DHT22;8864;51.970;4.614;2022-10-16T02:16:46;19.30;74.30
17495;DHT22;8864;51.970;4.614;2022-10-16T02:19:28;19.20;74.10
17495;DHT22;8864;51.970;4.614;2022-10-16T02:22:04;19.20;74.20
17495;DHT22;8864;51.970;4.614;2022-10-16T02:24:38;19.20;74.20
17495;DHT22;8864;51.970;4.614;2022-10-16T02:27:11;19.20;74.30
17495;DHT22;8864;51.970;4.614;2022-10-16T02:29:50;19.30;74.30
17495;DHT22;8864;51.970;4.614;2022-10-16T02:32:21;19.20;74.30
17495;DHT22;8864;51.970;4.614;2022-10-16T02:34:50;19.30;74.40
17495;DHT22;8864;51.970;4.614;2022-10-16T02:37:18;19.20;74.40
17495;DHT22;8864;51.970;4.614;2022-10-16T02:39:45;19.20;74.40
17495;DHT22;8864;51.970;4.614;2022-10-16T02:42:27;19.20;74.40
17495;DHT22;8864;51.970;4.614;2022-10-16T02:44:55;19.20;74.40
17495;DHT22;8864;51.970;4.614;2022-10-16T02:47:22;19.20;74.40
17495;DHT22;8864;51.970;4.614;2022-10-16T02:49:49;19.20;74.50
17495;DHT22;8864;51.970;4.614;2022-10-16T02:52:15;19.30;74.60
17495;DHT22;8864;51.970;4.614;2022-10-16T02:54:48;19.20;74.40
17495;DHT22;8864;51.970;4.614;2022-10-16T02:57:15;19.20;74.40
17495;DHT22;8864;51.970;4.614;2022-10-16T02:59:43;19.20;74.40
17495;DHT22;8864;51.970;4.614;2022-10-16T03:02:12;19.20;74.40
17495;DHT22;8864;51.970;4.614;2022-10-16T03:04:39;19.30;74.60
17495;DHT22;8864;51.970;4.614;2022-10-16T03:07:11;19.30;74.60
17495;DHT22;8864;51.970;4.614;2022-10-16T03:09:38;19.20;75.20
17495;DHT22;8864;51.970;4.614;2022-10-16T03:12:05;19.20;74.40
17495;DHT22;8864;51.970;4.614;2022-10-16T03:14:32;19.20;74.60
17495;DHT22;8864;51.970;4.614;2022-10-16T03:19:32;19.20;74.40
17495;DHT22;8864;51.970;4.614;2022-10-16T03:22:09;19.20;74.60
17495;DHT22;8864;51.970;4.614;2022-10-16T03:24:36;19.20;74.50
17495;DHT22;8864;51.970;4.614;2022-10-16T03:27:03;19.20;74.60
17495;DHT22;8864;51.970;4.614;2022-10-16T03:29:30;19.20;74.60
17495;DHT22;8864;51.970;4.614;2022-10-16T03:31:58;19.20;74.60
17495;DHT22;8864;51.970;4.614;2022-10-16T03:34:25;19.20;74.60
17495;DHT22;8864;51.970;4.614;2022-10-16T03:36:53;19.20;74.60
17495;DHT22;8864;51.970;4.614;2022-10-16T03:39:20;19.20;74.60
17495;DHT22;8864;51.970;4.614;2022-10-16T03:42:02;19.20;74.60
17495;DHT22;8864;51.970;4.614;2022-10-16T03:44:29;19.20;74.60
17495;DHT22;8864;51.970;4.614;2022-10-16T03:46:56;19.20;74.70
17495;DHT22;8864;51.970;4.614;2022-10-16T03:49:28;19.20;74.60
17495;DHT22;8864;51.970;4.614;2022-10-16T03:52:05;19.20;74.70
17495;DHT22;8864;51.970;4.614;2022-10-16T03:54:32;19.30;74.70
17495;DHT22;8864;51.970;4.614;2022-10-16T03:56:59;19.20;74.70
17495;DHT22;8864;51.970;4.614;2022-10-16T03:59:26;19.20;74.70
17495;DHT22;8864;51.970;4.614;2022-10-16T04:01:53;19.20;75.50
17495;DHT22;8864;51.970;4.614;2022-10-16T04:04:21;19.20;74.70
17495;DHT22;8864;51.970;4.614;2022-10-16T04:06:48;19.20;74.90
17495;DHT22;8864;51.970;4.614;2022-10-16T04:09:23;19.20;74.90
17495;DHT22;8864;51.970;4.614;2022-10-16T04:11:50;19.20;74.80
17495;DHT22;8864;51.970;4.614;2022-10-16T04:14:20;19.30;74.90
17495;DHT22;8864;51.970;4.614;2022-10-16T04:16:46;19.20;74.90
17495;DHT22;8864;51.970;4.614;2022-10-16T04:19:25;19.20;74.80
17495;DHT22;8864;51.970;4.614;2022-10-16T04:21:53;19.20;74.90
17495;DHT22;8864;51.970;4.614;2022-10-16T04:24:21;19.30;75.00
17495;DHT22;8864;51.970;4.614;2022-10-16T04:27:08;19.10;74.90
17495;DHT22;8864;51.970;4.614;2022-10-16T04:29:38;19.20;74.90
17495;DHT22;8864;51.970;4.614;2022-10-16T04:32:04;19.20;74.90
17495;DHT22;8864;51.970;4.614;2022-10-16T04:34:31;19.20;74.90
17495;DHT22;8864;51.970;4.614;2022-10-16T04:36:58;19.20;75.00
17495;DHT22;8864;51.970;4.614;2022-10-16T04:39:26;19.20;75.00
17495;DHT22;8864;51.970;4.614;2022-10-16T04:41:53;19.20;74.90
17495;DHT22;8864;51.970;4.614;2022-10-16T04:44:21;19.20;75.00
17495;DHT22;8864;51.970;4.614;2022-10-16T04:46:50;19.20;75.00
17495;DHT22;8864;51.970;4.614;2022-10-16T04:49:17;19.20;74.90
17495;DHT22;8864;51.970;4.614;2022-10-16T04:51:47;19.20;74.90
17495;DHT22;8864;51.970;4.614;2022-10-16T04:54:14;19.10;74.90
17495;DHT22;8864;51.970;4.614;2022-10-16T04:56:42;19.10;74.90
17495;DHT22;8864;51.970;4.614;2022-10-16T04:59:16;19.20;75.00
17495;DHT22;8864;51.970;4.614;2022-10-16T05:01:43;19.20;75.00
17495;DHT22;8864;51.970;4.614;2022-10-16T05:04:10;19.20;75.00
17495;DHT22;8864;51.970;4.614;2022-10-16T05:06:42;19.20;74.90
17495;DHT22;8864;51.970;4.614;2022-10-16T05:09:12;19.20;75.00
17495;DHT22;8864;51.970;4.614;2022-10-16T05:11:38;19.30;75.10
17495;DHT22;8864;51.970;4.614;2022-10-16T05:14:06;19.10;75.00
17495;DHT22;8864;51.970;4.614;2022-10-16T05:16:39;19.10;75.00
17495;DHT22;8864;51.970;4.614;2022-10-16T05:19:37;19.20;75.00
17495;DHT22;8864;51.970;4.614;2022-10-16T05:21:57;19.20;75.10
17495;DHT22;8864;51.970;4.614;2022-10-16T05:27:26;19.20;75.10
17495;DHT22;8864;51.970;4.614;2022-10-16T05:29:55;19.10;75.00
17495;DHT22;8864;51.970;4.614;2022-10-16T05:32:21;19.10;75.10
17495;DHT22;8864;51.970;4.614;2022-10-16T05:34:51;19.10;75.00
17495;DHT22;8864;51.970;4.614;2022-10-16T05:37:18;19.20;75.20
17495;DHT22;8864;51.970;4.614;2022-10-16T05:39:51;19.30;75.30
17495;DHT22;8864;51.970;4.614;2022-10-16T05:42:18;19.10;75.10
17495;DHT22;8864;51.970;4.614;2022-10-16T05:44:50;19.10;75.20
17495;DHT22;8864;51.970;4.614;2022-10-16T05:47:18;19.10;75.30
17495;DHT22;8864;51.970;4.614;2022-10-16T05:50:05;19.10;75.20
17495;DHT22;8864;51.970;4.614;2022-10-16T05:52:44;19.10;75.20
17495;DHT22;8864;51.970;4.614;2022-10-16T05:55:11;19.10;75.10
17495;DHT22;8864;51.970;4.614;2022-10-16T05:57:39;19.10;75.20
17495;DHT22;8864;51.970;4.614;2022-10-16T06:00:07;19.20;75.30
17495;DHT22;8864;51.970;4.614;2022-10-16T06:02:39;19.10;75.20
17495;DHT22;8864;51.970;4.614;2022-10-16T06:05:06;19.10;75.30
17495;DHT22;8864;51.970;4.614;2022-10-16T06:07:34;19.20;75.30
17495;DHT22;8864;51.970;4.614;2022-10-16T06:10:02;19.10;75.20
17495;DHT22;8864;51.970;4.614;2022-10-16T06:12:30;19.10;75.20
17495;DHT22;8864;51.970;4.614;2022-10-16T06:14:56;19.10;75.20
17495;DHT22;8864;51.970;4.614;2022-10-16T06:17:26;19.10;75.20
17495;DHT22;8864;51.970;4.614;2022-10-16T06:19:54;19.10;75.30
17495;DHT22;8864;51.970;4.614;2022-10-16T06:22:21;19.10;75.20
17495;DHT22;8864;51.970;4.614;2022-10-16T06:24:48;19.10;75.20
17495;DHT22;8864;51.970;4.614;2022-10-16T06:27:28;19.10;75.20
17495;DHT22;8864;51.970;4.614;2022-10-16T06:29:55;19.10;75.20
17495;DHT22;8864;51.970;4.614;2022-10-16T06:32:23;19.10;75.30
17495;DHT22;8864;51.970;4.614;2022-10-16T06:34:49;19.10;75.20
17495;DHT22;8864;51.970;4.614;2022-10-16T06:37:17;19.20;75.30
17495;DHT22;8864;51.970;4.614;2022-10-16T06:39:44;19.10;75.20
17495;DHT22;8864;51.970;4.614;2022-10-16T06:42:11;19.10;75.20
17495;DHT22;8864;51.970;4.614;2022-10-16T06:44:38;19.10;75.30
17495;DHT22;8864;51.970;4.614;2022-10-16T06:47:19;19.10;75.40
17495;DHT22;8864;51.970;4.614;2022-10-16T06:49:46;19.10;75.40
17495;DHT22;8864;51.970;4.614;2022-10-16T06:52:30;19.20;75.40
17495;DHT22;8864;51.970;4.614;2022-10-16T06:57:41;19.20;75.30
17495;DHT22;8864;51.970;4.614;2022-10-16T07:00:08;19.20;75.30
17495;DHT22;8864;51.970;4.614;2022-10-16T07:02:35;19.10;75.10
17495;DHT22;8864;51.970;4.614;2022-10-16T07:05:03;19.10;75.20
17495;DHT22;8864;51.970;4.614;2022-10-16T07:07:30;19.10;75.00
17495;DHT22;8864;51.970;4.614;2022-10-16T07:09:57;19.20;75.00
17495;DHT22;8864;51.970;4.614;2022-10-16T07:12:23;19.20;75.00
17495;DHT22;8864;51.970;4.614;2022-10-16T07:17:36;19.20;74.80
17495;DHT22;8864;51.970;4.614;2022-10-16T07:20:03;19.10;74.70
17495;DHT22;8864;51.970;4.614;2022-10-16T07:22:30;19.20;74.70
17495;DHT22;8864;51.970;4.614;2022-10-16T07:24:57;19.10;74.70
17495;DHT22;8864;51.970;4.614;2022-10-16T07:27:28;19.20;74.70
17495;DHT22;8864;51.970;4.614;2022-10-16T07:36:37;19.20;74.70
17495;DHT22;8864;51.970;4.614;2022-10-16T07:39:15;19.20;74.70
17495;DHT22;8864;51.970;4.614;2022-10-16T07:42:01;19.20;74.80
17495;DHT22;8864;51.970;4.614;2022-10-16T07:44:28;19.20;74.90
17495;DHT22;8864;51.970;4.614;2022-10-16T07:47:07;19.20;74.70
17495;DHT22;8864;51.970;4.614;2022-10-16T07:49:34;19.30;74.70
17495;DHT22;8864;51.970;4.614;2022-10-16T07:57:36;19.20;75.90
17495;DHT22;8864;51.970;4.614;2022-10-16T08:00:15;19.30;76.10
17495;DHT22;8864;51.970;4.614;2022-10-16T08:02:48;19.30;76.00
17495;DHT22;8864;51.970;4.614;2022-10-16T08:07:41;19.30;76.10
17495;DHT22;8864;51.970;4.614;2022-10-16T08:10:19;19.30;76.00
17495;DHT22;8864;51.970;4.614;2022-10-16T08:12:47;19.30;76.30
17495;DHT22;8864;51.970;4.614;2022-10-16T08:15:14;19.30;76.70
17495;DHT22;8864;51.970;4.614;2022-10-16T08:17:41;19.40;76.70
17495;DHT22;8864;51.970;4.614;2022-10-16T08:20:09;19.40;76.90
17495;DHT22;8864;51.970;4.614;2022-10-16T08:22:36;19.40;77.20
17495;DHT22;8864;51.970;4.614;2022-10-16T08:25:05;19.40;77.30
17495;DHT22;8864;51.970;4.614;2022-10-16T08:27:32;19.40;78.50
17495;DHT22;8864;51.970;4.614;2022-10-16T08:29:59;19.50;79.00
17495;DHT22;8864;51.970;4.614;2022-10-16T08:32:26;19.50;78.90
17495;DHT22;8864;51.970;4.614;2022-10-16T08:40:42;19.60;78.90
17495;DHT22;8864;51.970;4.614;2022-10-16T08:43:21;19.60;78.90
17495;DHT22;8864;51.970;4.614;2022-10-16T08:46:04;19.80;78.60
17495;DHT22;8864;51.970;4.614;2022-10-16T08:48:41;19.70;78.50
17495;DHT22;8864;51.970;4.614;2022-10-16T08:51:19;19.60;78.10
17495;DHT22;8864;51.970;4.614;2022-10-16T08:53:59;19.70;78.00
17495;DHT22;8864;51.970;4.614;2022-10-16T08:56:29;19.70;78.20
17495;DHT22;8864;51.970;4.614;2022-10-16T08:58:58;19.70;78.10
17495;DHT22;8864;51.970;4.614;2022-10-16T09:01:35;19.70;78.00
17495;DHT22;8864;51.970;4.614;2022-10-16T09:04:21;19.70;78.00
17495;DHT22;8864;51.970;4.614;2022-10-16T09:06:52;19.80;78.00
17495;DHT22;8864;51.970;4.614;2022-10-16T09:09:36;19.80;77.80
17495;DHT22;8864;51.970;4.614;2022-10-16T09:12:14;19.80;77.70
17495;DHT22;8864;51.970;4.614;2022-10-16T09:14:52;19.80;77.80
17495;DHT22;8864;51.970;4.614;2022-10-16T09:17:30;19.90;77.40
17495;DHT22;8864;51.970;4.614;2022-10-16T09:20:20;19.80;77.40
17495;DHT22;8864;51.970;4.614;2022-10-16T09:23:17;19.80;77.60
17495;DHT22;8864;51.970;4.614;2022-10-16T09:25:46;19.80;77.60
17495;DHT22;8864;51.970;4.614;2022-10-16T09:28:16;19.80;77.60
17495;DHT22;8864;51.970;4.614;2022-10-16T09:30:43;19.80;77.40
17495;DHT22;8864;51.970;4.614;2022-10-16T09:33:12;19.90;77.40
17495;DHT22;8864;51.970;4.614;2022-10-16T09:35:42;20.00;77.40
17495;DHT22;8864;51.970;4.614;2022-10-16T09:38:26;19.90;77.30
17495;DHT22;8864;51.970;4.614;2022-10-16T09:40:54;19.90;77.20
17495;DHT22;8864;51.970;4.614;2022-10-16T09:43:58;20.00;77.20
17495;DHT22;8864;51.970;4.614;2022-10-16T09:47:02;20.10;77.10
17495;DHT22;8864;51.970;4.614;2022-10-16T09:49:36;20.00;77.10
17495;DHT22;8864;51.970;4.614;2022-10-16T09:52:04;20.10;77.10
17495;DHT22;8864;51.970;4.614;2022-10-16T09:54:31;20.20;76.60
17495;DHT22;8864;51.970;4.614;2022-10-16T09:57:05;20.20;76.60
17495;DHT22;8864;51.970;4.614;2022-10-16T09:59:33;20.20;76.50
17495;DHT22;8864;51.970;4.614;2022-10-16T10:02:03;20.20;76.50
17495;DHT22;8864;51.970;4.614;2022-10-16T10:08:06;20.20;76.50
17495;DHT22;8864;51.970;4.614;2022-10-16T10:10:56;20.20;76.40
17495;DHT22;8864;51.970;4.614;2022-10-16T10:13:35;20.20;76.50
17495;DHT22;8864;51.970;4.614;2022-10-16T10:16:24;20.20;76.20
17495;DHT22;8864;51.970;4.614;2022-10-16T10:18:58;20.20;76.00
17495;DHT22;8864;51.970;4.614;2022-10-16T10:21:38;20.30;75.70
17495;DHT22;8864;51.970;4.614;2022-10-16T10:27:42;20.30;75.20
17495;DHT22;8864;51.970;4.614;2022-10-16T10:30:28;20.30;75.00
17495;DHT22;8864;51.970;4.614;2022-10-16T10:33:12;20.30;75.00
17495;DHT22;8864;51.970;4.614;2022-10-16T10:38:43;20.40;74.60
17495;DHT22;8864;51.970;4.614;2022-10-16T10:47:48;20.30;74.00
17495;DHT22;8864;51.970;4.614;2022-10-16T10:50:33;20.30;74.10
17495;DHT22;8864;51.970;4.614;2022-10-16T10:53:21;20.20;73.90
17495;DHT22;8864;51.970;4.614;2022-10-16T10:56:08;20.30;73.80
17495;DHT22;8864;51.970;4.614;2022-10-16T10:59:00;20.40;73.80
17495;DHT22;8864;51.970;4.614;2022-10-16T11:01:37;20.30;73.60
17495;DHT22;8864;51.970;4.614;2022-10-16T11:04:23;20.30;73.50
17495;DHT22;8864;51.970;4.614;2022-10-16T11:06:59;20.30;73.40
17495;DHT22;8864;51.970;4.614;2022-10-16T11:09:31;20.40;73.30
17495;DHT22;8864;51.970;4.614;2022-10-16T11:12:05;20.30;73.30
17495;DHT22;8864;51.970;4.614;2022-10-16T11:14:36;20.30;73.20
17495;DHT22;8864;51.970;4.614;2022-10-16T11:17:11;20.30;73.00
17495;DHT22;8864;51.970;4.614;2022-10-16T11:19:43;20.30;72.90
17495;DHT22;8864;51.970;4.614;2022-10-16T11:22:17;20.30;72.70
17495;DHT22;8864;51.970;4.614;2022-10-16T11:24:49;20.30;72.60
17495;DHT22;8864;51.970;4.614;2022-10-16T11:27:44;20.30;72.50
17495;DHT22;8864;51.970;4.614;2022-10-16T11:30:16;20.40;72.30
17495;DHT22;8864;51.970;4.614;2022-10-16T11:33:04;20.30;72.20
17495;DHT22;8864;51.970;4.614;2022-10-16T11:35:44;20.30;72.00
17495;DHT22;8864;51.970;4.614;2022-10-16T11:38:26;20.30;71.90
17495;DHT22;8864;51.970;4.614;2022-10-16T11:41:08;20.30;71.90
17495;DHT22;8864;51.970;4.614;2022-10-16T11:43:39;20.30;71.70
17495;DHT22;8864;51.970;4.614;2022-10-16T11:46:13;20.30;71.60
17495;DHT22;8864;51.970;4.614;2022-10-16T11:48:45;20.30;71.50
17495;DHT22;8864;51.970;4.614;2022-10-16T11:51:36;20.30;71.40
17495;DHT22;8864;51.970;4.614;2022-10-16T11:54:26;20.30;71.30
17495;DHT22;8864;51.970;4.614;2022-10-16T11:56:57;20.30;71.20
17495;DHT22;8864;51.970;4.614;2022-10-16T11:59:30;20.30;72.10
17495;DHT22;8864;51.970;4.614;2022-10-16T12:05:24;20.40;71.70
17495;DHT22;8864;51.970;4.614;2022-10-16T12:08:01;20.30;71.50
17495;DHT22;8864;51.970;4.614;2022-10-16T12:10:30;20.40;71.50
17495;DHT22;8864;51.970;4.614;2022-10-16T12:13:27;20.30;71.40
17495;DHT22;8864;51.970;4.614;2022-10-16T12:16:19;20.30;71.30
17495;DHT22;8864;51.970;4.614;2022-10-16T12:18:47;20.30;71.20
17495;DHT22;8864;51.970;4.614;2022-10-16T12:21:16;20.30;71.20
17495;DHT22;8864;51.970;4.614;2022-10-16T12:23:49;20.40;71.30
17495;DHT22;8864;51.970;4.614;2022-10-16T12:26:26;20.30;71.30
17495;DHT22;8864;51.970;4.614;2022-10-16T12:28:54;20.30;71.30
17495;DHT22;8864;51.970;4.614;2022-10-16T12:31:21;20.40;71.40
17495;DHT22;8864;51.970;4.614;2022-10-16T12:33:57;20.30;71.40
17495;DHT22;8864;51.970;4.614;2022-10-16T12:36:29;20.40;71.40
17495;DHT22;8864;51.970;4.614;2022-10-16T12:38:57;20.40;71.40
17495;DHT22;8864;51.970;4.614;2022-10-16T12:41:26;20.30;71.40
17495;DHT22;8864;51.970;4.614;2022-10-16T12:43:54;20.30;71.40
17495;DHT22;8864;51.970;4.614;2022-10-16T12:46:35;20.40;71.60
17495;DHT22;8864;51.970;4.614;2022-10-16T12:49:21;20.40;71.60
17495;DHT22;8864;51.970;4.614;2022-10-16T12:51:50;20.40;71.60
17495;DHT22;8864;51.970;4.614;2022-10-16T12:54:19;20.40;71.60
17495;DHT22;8864;51.970;4.614;2022-10-16T12:56:57;20.40;71.70
17495;DHT22;8864;51.970;4.614;2022-10-16T12:59:32;20.50;71.70
17495;DHT22;8864;51.970;4.614;2022-10-16T13:05:22;20.40;71.60
17495;DHT22;8864;51.970;4.614;2022-10-16T13:08:06;20.40;71.60
17495;DHT22;8864;51.970;4.614;2022-10-16T13:10:41;20.40;71.70
17495;DHT22;8864;51.970;4.614;2022-10-16T13:13:31;20.40;71.70
17495;DHT22;8864;51.970;4.614;2022-10-16T13:16:15;20.40;71.70
17495;DHT22;8864;51.970;4.614;2022-10-16T13:18:57;20.40;71.70
17495;DHT22;8864;51.970;4.614;2022-10-16T13:21:35;20.40;71.70
17495;DHT22;8864;51.970;4.614;2022-10-16T13:24:19;20.50;71.70
17495;DHT22;8864;51.970;4.614;2022-10-16T13:27:06;20.40;71.70
17495;DHT22;8864;51.970;4.614;2022-10-16T13:29:42;20.50;71.70
17495;DHT22;8864;51.970;4.614;2022-10-16T13:32:20;20.50;71.70
17495;DHT22;8864;51.970;4.614;2022-10-16T13:34:47;20.50;71.70
17495;DHT22;8864;51.970;4.614;2022-10-16T13:37:18;20.50;71.70
17495;DHT22;8864;51.970;4.614;2022-10-16T13:40:17;20.50;72.50
17495;DHT22;8864;51.970;4.614;2022-10-16T13:43:14;20.50;71.70
17495;DHT22;8864;51.970;4.614;2022-10-16T13:45:53;20.50;71.70
17495;DHT22;8864;51.970;4.614;2022-10-16T13:48:20;20.50;71.70
17495;DHT22;8864;51.970;4.614;2022-10-16T13:51:19;20.50;71.70
17495;DHT22;8864;51.970;4.614;2022-10-16T13:53:56;20.60;71.70
17495;DHT22;8864;51.970;4.614;2022-10-16T13:58:58;20.50;71.70
17495;DHT22;8864;51.970;4.614;2022-10-16T14:01:41;20.60;71.70
17495;DHT22;8864;51.970;4.614;2022-10-16T14:04:10;20.60;71.70
17495;DHT22;8864;51.970;4.614;2022-10-16T14:06:42;20.60;71.70
17495;DHT22;8864;51.970;4.614;2022-10-16T14:09:16;20.60;71.70
17495;DHT22;8864;51.970;4.614;2022-10-16T14:11:48;20.60;71.70
17495;DHT22;8864;51.970;4.614;2022-10-16T14:14:19;20.50;71.60
17495;DHT22;8864;51.970;4.614;2022-10-16T14:17:02;20.60;71.70
17495;DHT22;8864;51.970;4.614;2022-10-16T14:19:51;20.60;71.70
17495;DHT22;8864;51.970;4.614;2022-10-16T14:25:36;20.60;71.70
17495;DHT22;8864;51.970;4.614;2022-10-16T14:31:43;20.60;71.90
17495;DHT22;8864;51.970;4.614;2022-10-16T14:34:41;20.60;71.90
17495;DHT22;8864;51.970;4.614;2022-10-16T14:37:22;20.60;71.90
17495;DHT22;8864;51.970;4.614;2022-10-16T14:39:58;20.60;71.90
17495;DHT22;8864;51.970;4.614;2022-10-16T14:42:31;20.60;71.90
17495;DHT22;8864;51.970;4.614;2022-10-16T14:44:58;20.60;71.90
17495;DHT22;8864;51.970;4.614;2022-10-16T14:47:26;20.60;71.90
17495;DHT22;8864;51.970;4.614;2022-10-16T14:49:56;20.60;71.90
17495;DHT22;8864;51.970;4.614;2022-10-16T14:52:25;20.60;72.00
17495;DHT22;8864;51.970;4.614;2022-10-16T14:54:53;20.60;72.10
17495;DHT22;8864;51.970;4.614;2022-10-16T14:57:24;20.60;72.20
17495;DHT22;8864;51.970;4.614;2022-10-16T14:59:53;20.60;72.10
17495;DHT22;8864;51.970;4.614;2022-10-16T15:02:27;20.60;72.00
17495;DHT22;8864;51.970;4.614;2022-10-16T15:05:12;20.60;72.10
17495;DHT22;8864;51.970;4.614;2022-10-16T15:07:39;20.60;72.00
17495;DHT22;8864;51.970;4.614;2022-10-16T15:10:07;20.60;72.20
17495;DHT22;8864;51.970;4.614;2022-10-16T15:12:34;20.50;72.50
17495;DHT22;8864;51.970;4.614;2022-10-16T15:15:21;20.50;72.20
17495;DHT22;8864;51.970;4.614;2022-10-16T15:18:04;20.50;72.30
17495;DHT22;8864;51.970;4.614;2022-10-16T15:20:35;20.50;72.20
17495;DHT22;8864;51.970;4.614;2022-10-16T15:23:03;20.50;72.30
17495;DHT22;8864;51.970;4.614;2022-10-16T15:25:55;20.50;72.30
17495;DHT22;8864;51.970;4.614;2022-10-16T15:28:23;20.40;72.30
17495;DHT22;8864;51.970;4.614;2022-10-16T15:30:52;20.50;72.50
17495;DHT22;8864;51.970;4.614;2022-10-16T15:33:21;20.50;72.50
17495;DHT22;8864;51.970;4.614;2022-10-16T15:35:51;20.50;72.60
17495;DHT22;8864;51.970;4.614;2022-10-16T15:38:20;20.50;72.60
17495;DHT22;8864;51.970;4.614;2022-10-16T15:40:47;20.40;72.60
17495;DHT22;8864;51.970;4.614;2022-10-16T15:43:15;20.40;72.60
17495;DHT22;8864;51.970;4.614;2022-10-16T15:45:42;20.40;72.70
17495;DHT22;8864;51.970;4.614;2022-10-16T15:48:11;20.40;72.80
17495;DHT22;8864;51.970;4.614;2022-10-16T15:50:39;20.40;72.80
17495;DHT22;8864;51.970;4.614;2022-10-16T15:53:07;20.40;72.70
17495;DHT22;8864;51.970;4.614;2022-10-16T15:55:34;20.40;72.80
17495;DHT22;8864;51.970;4.614;2022-10-16T15:58:04;20.40;72.80
17495;DHT22;8864;51.970;4.614;2022-10-16T16:00:31;20.40;72.80
17495;DHT22;8864;51.970;4.614;2022-10-16T16:02:58;20.40;72.80
17495;DHT22;8864;51.970;4.614;2022-10-16T16:05:25;20.40;73.00
17495;DHT22;8864;51.970;4.614;2022-10-16T16:07:53;20.40;73.00
17495;DHT22;8864;51.970;4.614;2022-10-16T16:10:21;20.40;73.00
17495;DHT22;8864;51.970;4.614;2022-10-16T16:12:50;20.30;73.00
17495;DHT22;8864;51.970;4.614;2022-10-16T16:15:31;20.40;73.30
17495;DHT22;8864;51.970;4.614;2022-10-16T16:17:57;20.30;73.20
17495;DHT22;8864;51.970;4.614;2022-10-16T16:20:25;20.40;73.30
17495;DHT22;8864;51.970;4.614;2022-10-16T16:22:52;20.30;73.90
17495;DHT22;8864;51.970;4.614;2022-10-16T16:25:28;20.40;74.00
17495;DHT22;8864;51.970;4.614;2022-10-16T16:27:54;20.30;73.80
17495;DHT22;8864;51.970;4.614;2022-10-16T16:30:30;20.30;73.90
17495;DHT22;8864;51.970;4.614;2022-10-16T16:32:57;20.30;73.80
17495;DHT22;8864;51.970;4.614;2022-10-16T16:35:24;20.30;73.80
17495;DHT22;8864;51.970;4.614;2022-10-16T16:37:51;20.30;73.80
17495;DHT22;8864;51.970;4.614;2022-10-16T16:40:31;20.30;73.80
17495;DHT22;8864;51.970;4.614;2022-10-16T16:42:58;20.30;73.80
17495;DHT22;8864;51.970;4.614;2022-10-16T16:45:25;20.30;73.80
17495;DHT22;8864;51.970;4.614;2022-10-16T16:47:52;20.30;73.90
17495;DHT22;8864;51.970;4.614;2022-10-16T16:50:19;20.30;73.80
17495;DHT22;8864;51.970;4.614;2022-10-16T16:52:45;20.20;73.80
17495;DHT22;8864;51.970;4.614;2022-10-16T16:55:12;20.30;73.80
17495;DHT22;8864;51.970;4.614;2022-10-16T16:57:40;20.20;73.70
17495;DHT22;8864;51.970;4.614;2022-10-16T17:00:08;20.30;73.90
17495;DHT22;8864;51.970;4.614;2022-10-16T17:02:38;20.20;73.80
17495;DHT22;8864;51.970;4.614;2022-10-16T17:05:09;20.30;73.90
17495;DHT22;8864;51.970;4.614;2022-10-16T17:07:36;20.20;73.80
17495;DHT22;8864;51.970;4.614;2022-10-16T17:10:06;20.20;73.80
17495;DHT22;8864;51.970;4.614;2022-10-16T17:12:33;20.20;73.90
17495;DHT22;8864;51.970;4.614;2022-10-16T17:15:02;20.20;73.80
17495;DHT22;8864;51.970;4.614;2022-10-16T17:17:28;20.20;73.80
17495;DHT22;8864;51.970;4.614;2022-10-16T17:19:55;20.20;73.80
17495;DHT22;8864;51.970;4.614;2022-10-16T17:22:22;20.20;73.80
17495;DHT22;8864;51.970;4.614;2022-10-16T17:24:49;20.20;73.80
17495;DHT22;8864;51.970;4.614;2022-10-16T17:27:16;20.10;73.70
17495;DHT22;8864;51.970;4.614;2022-10-16T17:29:44;20.10;73.80